createdAt,value
2019-01-08T00:01:14.394Z,98908.94
2019-01-08T00:17:36.111Z,98872.28
2019-01-08T00:22:48.008Z,98856.25
2019-01-08T00:28:04.572Z,98835.99
2019-01-08T00:38:19.436Z,98819.12
2019-01-08T00:43:24.363Z,98806.47
2019-01-08T00:59:48.149Z,98787.78
2019-01-08T01:26:30.060Z,98738.31
2019-01-08T01:31:45.611Z,98750.02
2019-01-08T01:36:50.017Z,98739.82
2019-01-08T01:41:54.281Z,98719.05
2019-01-08T01:47:17.917Z,98714.05
2019-01-08T01:52:41.607Z,98708.75
2019-01-08T02:03:14.790Z,98699.03
2019-01-08T02:08:19.050Z,98698.83
2019-01-08T02:18:52.424Z,98663.59
2019-01-08T02:29:25.188Z,98689.58
2019-01-08T02:34:29.820Z,98717.14
2019-01-08T02:39:34.088Z,98707.48
2019-01-08T02:54:57.402Z,98707.63
2019-01-08T03:10:59.784Z,98652.56
2019-01-08T03:16:04.025Z,98665.02
2019-01-08T03:31:27.644Z,98636.30
2019-01-08T03:36:43.897Z,98638.84
2019-01-08T03:41:48.471Z,98643.77
2019-01-08T03:46:55.064Z,98639.05
2019-01-08T03:51:59.391Z,98642.55
2019-01-08T03:57:03.696Z,98628.64
2019-01-08T04:02:07.965Z,98625.45
2019-01-08T04:07:12.257Z,98626.48
2019-01-08T04:12:16.481Z,98614.09
2019-01-08T04:17:21.067Z,98616.95
2019-01-08T04:22:25.606Z,98610.24
2019-01-08T04:27:29.886Z,98608.72
2019-01-08T04:32:34.105Z,98607.48
2019-01-08T04:37:38.372Z,98596.27
2019-01-08T04:42:42.681Z,98599.29
2019-01-08T04:47:46.896Z,98596.07
2019-01-08T04:52:51.110Z,98590.78
2019-01-08T04:57:55.547Z,98580.20
2019-01-08T05:02:59.807Z,98577.39
2019-01-08T05:08:04.133Z,98568.78
2019-01-08T05:13:08.379Z,98568.16
2019-01-08T05:18:12.641Z,98556.52
2019-01-08T05:23:16.936Z,98553.12
2019-01-08T05:28:21.169Z,98554.91
2019-01-08T05:33:25.501Z,98543.98
2019-01-08T05:38:29.787Z,98537.75
2019-01-08T05:43:34.033Z,98544.73
2019-01-08T05:48:38.274Z,98545.56
2019-01-08T05:53:42.630Z,98530.84
2019-01-08T05:58:46.830Z,98548.78
2019-01-08T06:03:51.144Z,98531.13
2019-01-08T06:08:55.379Z,98535.19
2019-01-08T06:13:59.748Z,98524.32
2019-01-08T06:19:03.992Z,98516.22
2019-01-08T06:24:08.214Z,98506.87
2019-01-08T06:29:12.641Z,98499.78
2019-01-08T06:34:16.886Z,98502.34
2019-01-08T06:39:21.147Z,98496.47
2019-01-08T06:44:25.453Z,98489.11
2019-01-08T06:49:29.799Z,98488.45
2019-01-08T06:54:34.375Z,98480.69
2019-01-08T06:59:38.654Z,98474.20
2019-01-08T07:04:42.887Z,98474.86
2019-01-08T07:09:47.228Z,98462.02
2019-01-08T07:14:51.656Z,98462.97
2019-01-08T07:19:56.013Z,98466.93
2019-01-08T07:25:00.545Z,98460.44
2019-01-08T07:30:05.148Z,98451.44
2019-01-08T07:35:09.506Z,98447.88
2019-01-08T07:40:13.862Z,98449.58
2019-01-08T07:45:18.263Z,98454.95
2019-01-08T07:55:32.621Z,98427.52
2019-01-08T08:00:55.916Z,98414.45
2019-01-08T08:06:00.218Z,98428.95
2019-01-08T08:16:13.998Z,98431.06
2019-01-08T08:21:37.632Z,98427.59
2019-01-08T08:26:41.957Z,98423.70
2019-01-08T08:31:46.278Z,98419.16
2019-01-08T08:37:11.874Z,98423.73
2019-01-08T08:42:27.511Z,98426.47
2019-01-08T08:47:32.146Z,98419.86
2019-01-08T08:52:36.382Z,98414.58
2019-01-08T08:57:40.634Z,98424.37
2019-01-08T09:08:13.406Z,98431.58
2019-01-08T09:13:17.698Z,98421.91
2019-01-08T09:33:51.284Z,98430.43
2019-01-08T09:38:55.579Z,98417.97
2019-01-08T09:43:59.956Z,98407.02
2019-01-08T09:49:04.510Z,98412.56
2019-01-08T09:54:08.895Z,98390.59
2019-01-08T09:59:13.119Z,98394.23
2019-01-08T10:04:17.600Z,98368.66
2019-01-08T10:09:21.896Z,98370.27
2019-01-08T10:14:26.442Z,98365.44
2019-01-08T10:19:30.762Z,98353.80
2019-01-08T10:24:35.105Z,98344.02
2019-01-08T10:29:39.337Z,98336.00
2019-01-08T10:34:43.651Z,98324.94
2019-01-08T10:39:47.872Z,98318.09
2019-01-08T10:44:52.232Z,98318.34
2019-01-08T10:49:56.556Z,98294.30
2019-01-08T10:55:00.783Z,98304.34
2019-01-08T11:00:05.521Z,98293.61
2019-01-08T11:05:09.760Z,98291.84
2019-01-08T11:10:14.382Z,98286.52
2019-01-08T11:15:18.628Z,98270.37
2019-01-08T11:20:23.053Z,98260.91
2019-01-08T11:25:28.314Z,98265.98
2019-01-08T11:30:32.528Z,98253.89
2019-01-08T11:35:42.155Z,98257.89
2019-01-08T11:40:42.763Z,98253.84
2019-01-08T11:45:47.147Z,98239.73
2019-01-08T11:50:51.379Z,98230.06
2019-01-08T11:55:55.891Z,98230.80
2019-01-08T12:00:59.953Z,98225.02
2019-01-08T12:06:04.263Z,98210.92
2019-01-08T12:11:08.559Z,98209.72
2019-01-08T12:16:12.886Z,98189.62
2019-01-08T12:21:17.508Z,98180.37
2019-01-08T12:26:22.124Z,98152.16
2019-01-08T12:31:26.406Z,98160.61
2019-01-08T12:36:30.750Z,98150.55
2019-01-08T12:41:35.520Z,98158.84
2019-01-08T12:46:40.038Z,98155.85
2019-01-08T12:51:44.302Z,98146.58
2019-01-08T12:56:48.628Z,98134.09
2019-01-08T13:01:53.008Z,98157.73
2019-01-08T13:06:57.336Z,98157.23
2019-01-08T13:12:01.556Z,98175.81
2019-01-08T13:17:11.454Z,98200.66
2019-01-08T13:22:11.797Z,98186.87
2019-01-08T13:27:16.208Z,98190.47
2019-01-08T13:32:23.328Z,98193.22
2019-01-08T13:37:26.863Z,98205.38
2019-01-08T13:42:31.334Z,98216.30
2019-01-08T13:47:35.752Z,98174.43
2019-01-08T13:52:40.449Z,98192.33
2019-01-08T13:57:44.759Z,98199.33
2019-01-08T14:02:49.019Z,98190.95
2019-01-08T14:07:53.348Z,98189.38
2019-01-08T14:12:57.680Z,98197.61
2019-01-08T14:18:01.948Z,98201.63
2019-01-08T14:23:06.752Z,98203.54
2019-01-08T14:28:11.285Z,98208.53
2019-01-08T14:33:15.889Z,98221.12
2019-01-08T14:38:20.169Z,98227.88
2019-01-08T14:43:24.493Z,98229.41
2019-01-08T14:48:28.865Z,98235.93
2019-01-08T14:53:33.189Z,98245.34
2019-01-08T14:58:37.508Z,98257.72
2019-01-08T15:03:41.856Z,98249.91
2019-01-08T15:08:46.186Z,98233.62
2019-01-08T15:13:50.581Z,98250.16
2019-01-08T15:18:54.996Z,98259.06
2019-01-08T15:23:59.675Z,98243.72
2019-01-08T15:29:03.907Z,98242.77
2019-01-08T15:34:08.160Z,98255.59
2019-01-08T15:39:12.510Z,98259.89
2019-01-08T15:44:17.071Z,98259.15
2019-01-08T15:49:21.415Z,98261.67
2019-01-08T15:54:25.637Z,98269.38
2019-01-08T15:59:29.911Z,98273.09
2019-01-08T16:04:34.220Z,98282.36
2019-01-08T16:09:38.823Z,98309.42
2019-01-08T16:14:43.510Z,98302.82
2019-01-08T16:19:48.035Z,98294.45
2019-01-08T16:24:52.476Z,98306.33
2019-01-08T16:29:56.749Z,98291.80
2019-01-08T16:35:01.090Z,98294.81
2019-01-08T16:40:05.959Z,98307.91
2019-01-08T16:45:10.818Z,98304.26
2019-01-08T16:50:15.941Z,98301.78
2019-01-08T16:55:20.354Z,98308.87
2019-01-08T17:00:24.685Z,98329.24
2019-01-08T17:05:29.010Z,98320.55
2019-01-08T17:10:33.317Z,98322.63
2019-01-08T17:15:37.837Z,98297.55
2019-01-08T17:20:42.229Z,98296.80
2019-01-08T17:25:48.025Z,98293.41
2019-01-08T17:30:52.537Z,98306.95
2019-01-08T17:35:56.844Z,98299.23
2019-01-08T17:41:01.102Z,98302.05
2019-01-08T17:46:05.416Z,98296.02
2019-01-08T17:51:09.721Z,98291.86
2019-01-08T17:56:14.145Z,98281.47
2019-01-08T18:01:24.701Z,98280.93
2019-01-08T18:06:28.944Z,98289.34
2019-01-08T18:11:33.241Z,98298.95
2019-01-08T18:16:37.476Z,98272.88
2019-01-08T18:21:41.903Z,98284.92
2019-01-08T18:26:46.216Z,98289.16
2019-01-08T18:31:50.904Z,98297.74
2019-01-08T18:36:55.154Z,98304.73
2019-01-08T18:41:59.792Z,98304.43
2019-01-08T18:47:04.219Z,98299.52
2019-01-08T18:52:08.592Z,98301.42
2019-01-08T18:57:12.809Z,98296.02
2019-01-08T19:02:17.452Z,98314.03
2019-01-08T19:07:25.496Z,98322.22
2019-01-08T19:12:29.855Z,98323.77
2019-01-08T19:17:34.458Z,98309.91
2019-01-08T19:22:38.829Z,98311.20
2019-01-08T19:27:44.003Z,98313.66
2019-01-08T19:32:48.220Z,98298.36
2019-01-08T19:37:52.547Z,98298.98
2019-01-08T19:42:57.023Z,98310.08
2019-01-08T19:48:01.278Z,98311.97
2019-01-08T19:53:05.838Z,98305.99
2019-01-08T19:58:10.088Z,98285.86
2019-01-08T20:03:14.402Z,98277.22
2019-01-08T20:08:18.650Z,98277.33
2019-01-08T20:13:22.911Z,98275.52
2019-01-08T20:18:27.297Z,98275.44
2019-01-08T20:23:34.753Z,98261.23
2019-01-08T20:28:39.061Z,98264.72
2019-01-08T20:33:43.655Z,98274.12
2019-01-08T20:38:48.036Z,98258.41
2019-01-08T20:43:52.453Z,98265.74
2019-01-08T20:48:56.822Z,98263.31
2019-01-08T20:54:01.275Z,98261.50
2019-01-08T20:59:05.856Z,98277.89
2019-01-08T21:04:10.189Z,98278.64
2019-01-08T21:09:14.460Z,98264.72
2019-01-08T21:14:19.061Z,98262.45
2019-01-08T21:19:23.310Z,98251.73
2019-01-08T21:24:28.873Z,98258.05
2019-01-08T21:29:33.488Z,98266.79
2019-01-08T21:34:44.263Z,98275.90
2019-01-08T21:39:44.476Z,98265.36
2019-01-08T21:44:48.821Z,98264.19
2019-01-08T21:49:53.413Z,98271.14
2019-01-08T21:54:57.847Z,98270.58
2019-01-08T22:00:02.179Z,98250.07
2019-01-08T22:05:06.591Z,98256.84
2019-01-08T22:10:10.967Z,98248.58
2019-01-08T22:15:17.852Z,98246.88
2019-01-08T22:20:22.809Z,98274.91
2019-01-08T22:25:27.492Z,98267.56
2019-01-08T22:30:31.780Z,98261.23
2019-01-08T22:41:24.857Z,98276.95
2019-01-08T22:46:48.305Z,98275.09
2019-01-08T22:57:13.487Z,98249.18
2019-01-08T23:02:17.796Z,98236.01
2019-01-08T23:13:09.758Z,98242.30
2019-01-08T23:18:33.088Z,98239.66
2019-01-08T23:23:56.346Z,98248.05
2019-01-08T23:34:29.732Z,98263.97
2019-01-08T23:39:33.957Z,98248.05
2019-01-08T23:44:38.205Z,98243.79
2019-01-08T23:55:31.133Z,98231.91
